createdAt,value
2022-09-27T15:25:04.128Z,13.71
2022-09-27T17:41:04.372Z,12.94
2022-09-27T17:41:43.974Z,12.99
2022-09-27T17:42:35.335Z,13.03
2022-09-27T17:43:15.730Z,13.42
2022-09-27T17:44:26.870Z,12.98
2022-09-27T17:44:43.771Z,12.85
2022-09-27T17:45:19.288Z,12.99
2022-09-27T17:46:04.743Z,13.10
2022-09-27T17:48:29.725Z,13.17
2022-09-27T17:49:21.535Z,12.85
2022-09-27T17:50:27.890Z,13.07
2022-09-27T18:30:38.955Z,13.61
2022-09-27T18:31:49.699Z,13.41
2022-09-27T18:32:21.376Z,13.46
2022-09-27T18:32:41.834Z,13.78
2022-09-27T18:33:11.084Z,14.03
2022-09-27T18:33:29.355Z,13.76
2022-09-27T18:34:44.624Z,13.74
2022-09-27T18:35:16.274Z,14.06
2022-09-27T19:09:16.990Z,14.61
2022-09-27T19:10:10.464Z,14.64
2022-09-27T19:25:27.354Z,14.73
2022-09-27T19:26:24.719Z,14.27
2022-09-27T19:26:54.157Z,14.49
2022-09-27T19:27:47.254Z,14.43
2022-09-27T19:28:12.732Z,14.32
2022-09-27T19:28:40.114Z,14.09
2022-09-27T19:29:30.000Z,13.62
2022-09-27T19:30:07.161Z,13.76
2022-09-27T19:30:31.850Z,14.13
2022-09-27T19:30:59.056Z,14.20
2022-09-27T19:31:29.835Z,14.00
2022-09-27T19:31:48.632Z,13.84
2022-09-27T19:32:51.606Z,14.12
2022-09-27T19:34:15.843Z,13.85
2022-09-27T19:34:48.045Z,14.19
2022-09-27T19:35:13.989Z,14.23
2022-09-27T19:35:40.901Z,14.21
2022-09-27T19:36:21.774Z,14.12
2022-09-27T19:37:41.836Z,14.37
2022-09-27T19:38:32.423Z,14.67
2022-09-27T19:40:15.369Z,14.36
2022-09-27T19:41:00.701Z,14.20
2022-09-27T19:43:34.441Z,14.20
2022-09-27T19:44:21.070Z,14.41
2022-09-27T19:45:21.156Z,14.34
2022-09-27T19:46:10.339Z,14.01
2022-09-27T19:46:35.090Z,13.99
2022-09-27T19:47:02.894Z,14.05
2022-09-27T19:47:20.806Z,14.17
2022-09-27T19:47:38.308Z,13.82
2022-09-27T19:48:13.487Z,13.76
2022-09-27T19:48:39.642Z,13.38
2022-09-27T19:48:56.753Z,13.43
2022-09-27T19:49:36.168Z,13.73
2022-09-27T19:50:07.046Z,13.54
2022-09-27T19:50:37.429Z,13.62
2022-09-27T19:51:18.703Z,13.95
2022-09-27T19:52:08.855Z,14.10
2022-09-27T19:52:35.828Z,13.75
2022-09-27T19:53:32.225Z,13.53
2022-09-27T19:53:54.924Z,13.52
2022-09-27T19:54:36.998Z,13.35
2022-09-27T19:54:58.668Z,13.63
2022-09-27T20:19:26.094Z,13.93
2022-09-27T20:20:02.402Z,14.05
2022-09-27T20:20:41.867Z,14.11
2022-09-27T20:21:06.642Z,14.03
2022-09-27T20:21:41.699Z,14.38
2022-09-27T20:22:18.655Z,14.19
2022-09-27T20:22:42.055Z,13.79
2022-09-27T20:23:00.354Z,13.65
2022-09-27T20:23:20.304Z,13.84
2022-09-27T20:24:09.310Z,14.00
2022-09-27T20:26:32.200Z,14.26
2022-09-27T20:26:56.656Z,14.12
2022-09-27T20:27:19.441Z,14.15
2022-09-27T20:27:46.938Z,14.27
2022-09-27T20:28:20.588Z,14.25
2022-09-27T20:28:55.786Z,14.11
2022-09-27T20:29:11.353Z,13.51
2022-09-27T20:29:34.485Z,13.54
2022-09-27T20:30:19.400Z,13.85
2022-09-27T20:31:07.113Z,14.10
2022-09-27T20:31:27.231Z,14.27
2022-09-27T20:32:27.414Z,13.93
2022-09-27T20:32:44.848Z,14.36
2022-09-27T20:33:51.776Z,14.55
2022-09-27T20:35:09.143Z,14.48
2022-09-27T20:35:41.869Z,14.11
2022-09-27T20:36:07.625Z,13.95
2022-09-27T20:36:42.284Z,14.06
2022-09-27T20:37:27.932Z,14.28
2022-09-27T20:38:34.260Z,14.15
2022-09-27T20:39:16.035Z,13.61
2022-09-27T20:39:41.613Z,14.11
2022-09-27T20:40:01.687Z,14.32
2022-09-27T20:40:23.041Z,14.24
2022-09-27T20:40:52.406Z,14.00
2022-09-27T20:41:09.612Z,13.92
2022-09-27T20:41:26.165Z,14.13
2022-09-27T20:42:11.020Z,14.19
2022-09-27T20:42:36.452Z,14.12
2022-09-27T22:21:04.227Z,12.24
2022-09-27T22:21:35.739Z,12.32
2022-09-27T22:22:26.966Z,12.57
2022-09-27T22:22:46.990Z,12.82
2022-09-27T22:23:01.643Z,13.02
2022-09-27T22:23:31.067Z,13.05
2022-09-27T22:24:07.242Z,12.83
2022-09-27T22:26:00.693Z,12.95
2022-09-27T22:26:20.792Z,13.13
2022-09-27T22:26:38.874Z,13.34
2022-09-27T22:27:13.161Z,13.35
2022-09-27T22:27:35.729Z,13.34
2022-09-27T22:27:58.535Z,12.86
2022-09-27T22:29:46.354Z,13.51
2022-09-27T22:30:02.734Z,13.50
2022-09-27T22:30:37.311Z,13.50
